De Sui — BSFU — position and weather

sailwx.info

Track history (hours):
 
Tides and Currents Weather Stations Pressure Air Temp Water Temp Dewpoint Dewpoint Depression Visibility Wind Speed Wind Dir Waves Ship Positions

De Sui

Last reported at 2015-May-13 09:33 UTC. Time now 2015-May-25 09:28 UTC.
Position N 23°05' E 116°46'.
Warning: this ship's position is 11 days out of date.

Length 65 m; draft 5 m.

Type: Tug. MMSI: 413070000.

Date/timePositionNaut miles runAvg speedWind from/ knotsBaromVisibWave heightAir tempDewpointWater temp
2015-May-13 09:33N 23°05' E 116°46'4 4.3
2015-May-13 08:33N 23°09' E 116°46'4 4.0
2015-May-13 07:33N 23°13' E 116°46'0 0.1
2015-May-13 06:30N 23°13' E 116°46'0 0.0
2015-May-13 05:30N 23°13' E 116°46'0 0.0
2015-May-13 04:30N 23°13' E 116°46'0 0.0
2015-May-13 03:30N 23°13' E 116°46'0 0.0
2015-May-13 02:30N 23°13' E 116°46'1 0.1
2015-May-12 18:33N 23°13' E 116°46'0 0.0
2015-May-12 17:33N 23°13' E 116°46'0 0.0
2015-May-12 16:15N 23°13' E 116°46'0 0.0
2015-May-12 15:27N 23°13' E 116°46'1 0.0
2015-May-12 03:09N 23°13' E 116°47'0 0.0
2015-May-12 02:20N 23°13' E 116°47'0 0.0
2015-May-12 01:09N 23°13' E 116°47'0 0.0
2015-May-12 00:33N 23°13' E 116°47'0 0.0
2015-May-11 23:32N 23°13' E 116°47'0 0.0
2015-May-11 22:21N 23°13' E 116°47'0 0.0
2015-May-11 21:32N 23°13' E 116°47'0 0.0
2015-May-11 20:32N 23°13' E 116°47'0 0.0
2015-May-11 19:32N 23°13' E 116°47'0 0.0
2015-May-11 18:33N 23°13' E 116°47'0 0.0
2015-May-11 17:27N 23°13' E 116°47'0 0.0
2015-May-11 15:32N 23°13' E 116°47'0 0.0
2015-May-11 13:33N 23°13' E 116°47'0 0.0
2015-May-11 12:14N 23°13' E 116°47'0 0.0
2015-May-11 11:14N 23°13' E 116°47'0 0.0
2015-May-11 10:32N 23°13' E 116°47'0 0.0
2015-May-11 09:14N 23°13' E 116°47'0 0.0
2015-May-11 08:32N 23°13' E 116°47'0 0.0
2015-May-11 07:32N 23°13' E 116°47'0 0.0
2015-May-11 06:26N 23°13' E 116°47'0 0.0
2015-May-11 05:20N 23°13' E 116°47'0 0.0
2015-May-11 04:32N 23°13' E 116°47'2 0.1
2015-May-10 00:33N 23°11' E 116°47'5 0.7
2015-May-09 16:31N 23°08' E 116°51'  
Track history (hours):
 
Tides and Currents Weather Stations Pressure Air Temp Water Temp Dewpoint Dewpoint Depression Visibility Wind Speed Wind Dir Waves Ship Positions

De Sui

Last reported at 2015-May-13 09:33 UTC. Time now 2015-May-25 09:28 UTC.
Position N 23°05' E 116°46'.
Warning: this ship's position is 11 days out of date.

Length 65 m; draft 5 m.

Type: Tug. MMSI: 413070000.

Date/timePositionNaut miles runAvg speedWind from/ knotsBaromVisibWave heightAir tempDewpointWater temp
2015-May-13 09:33N 23°05' E 116°46'4 4.3
2015-May-13 08:33N 23°09' E 116°46'4 4.0
2015-May-13 07:33N 23°13' E 116°46'0 0.1
2015-May-13 06:30N 23°13' E 116°46'0 0.0
2015-May-13 05:30N 23°13' E 116°46'0 0.0
2015-May-13 04:30N 23°13' E 116°46'0 0.0
2015-May-13 03:30N 23°13' E 116°46'0 0.0
2015-May-13 02:30N 23°13' E 116°46'1 0.1
2015-May-12 18:33N 23°13' E 116°46'0 0.0
2015-May-12 17:33N 23°13' E 116°46'0 0.0
2015-May-12 16:15N 23°13' E 116°46'0 0.0
2015-May-12 15:27N 23°13' E 116°46'1 0.0
2015-May-12 03:09N 23°13' E 116°47'0 0.0
2015-May-12 02:20N 23°13' E 116°47'0 0.0
2015-May-12 01:09N 23°13' E 116°47'0 0.0
2015-May-12 00:33N 23°13' E 116°47'0 0.0
2015-May-11 23:32N 23°13' E 116°47'0 0.0
2015-May-11 22:21N 23°13' E 116°47'0 0.0
2015-May-11 21:32N 23°13' E 116°47'0 0.0
2015-May-11 20:32N 23°13' E 116°47'0 0.0
2015-May-11 19:32N 23°13' E 116°47'0 0.0
2015-May-11 18:33N 23°13' E 116°47'0 0.0
2015-May-11 17:27N 23°13' E 116°47'0 0.0
2015-May-11 15:32N 23°13' E 116°47'0 0.0
2015-May-11 13:33N 23°13' E 116°47'0 0.0
2015-May-11 12:14N 23°13' E 116°47'0 0.0
2015-May-11 11:14N 23°13' E 116°47'0 0.0
2015-May-11 10:32N 23°13' E 116°47'0 0.0
2015-May-11 09:14N 23°13' E 116°47'0 0.0
2015-May-11 08:32N 23°13' E 116°47'0 0.0
2015-May-11 07:32N 23°13' E 116°47'0 0.0
2015-May-11 06:26N 23°13' E 116°47'0 0.0
2015-May-11 05:20N 23°13' E 116°47'0 0.0
2015-May-11 04:32N 23°13' E 116°47'2 0.1
2015-May-10 00:33N 23°11' E 116°47'5 0.7
2015-May-09 16:31N 23°08' E 116°51'  

Dump ship's entire track history